NORTHEAST SUFFOLK  -  Rip Current Statement Rip Current Statement        NORTHERN NASSAU  -  Rip Current Statement Rip Current Statement        NORTHERN QUEENS  -  Rip Current Statement Rip Current Statement        NORTHWEST SUFFOLK  -  Rip Current Statement Rip Current Statement        SOUTHEAST SUFFOLK  -  Rip Current Statement Rip Current Statement        SOUTHERN NASSAU  -  Rip Current Statement Rip Current Statement        SOUTHERN QUEENS  -  Rip Current Statement Rip Current Statement        SOUTHWEST SUFFOLK  -  Rip Current Statement Rip Current Statement      

Active alerts

Northern Queens
  Details for Northern Queens Rip Current Statement
Southern Queens
  Details for Southern Queens Rip Current Statement
Northern Nassau
  Details for Northern Nassau Rip Current Statement
Southern Nassau
  Details for Southern Nassau Rip Current Statement
Northwest Suffolk
  Details for Northwest Suffolk Rip Current Statement
Southwest Suffolk
  Details for Southwest Suffolk Rip Current Statement
Northeast Suffolk
  Details for Northeast Suffolk Rip Current Statement
Southeast Suffolk
  Details for Southeast Suffolk Rip Current Statement


WXM80 ListenWXM80 Stop

You find our weather info also at:

UK Metoffice

WeatherCloud

Weather Underground

Northeastern Weather Network

AWEKAS

Citizen Weather Observer Program (CWOP)

HAMweather, WeatherForYou, PWS Weather


Weather Underground History page Text

Daily Summary for July 4, 2016 Units:  English    Metric   Both
« Previous Day
Next Day »
Daily Weekly Monthly Yearly Custom
  High: Low: Average:
Temperature: 88.8 °F 64.2 °F 74.7 °F
Dew Point: 69.2 °F 56.9 °F 62.5 °F
Humidity: 92 % 38 % 68 %
Wind Speed: 7.5 mph 0.0 mph 1.9 mph
Wind Gust: 15.0 mph - -
Wind:- - SSW
Pressure: 30.06 in 29.90 in -
Precipitation: 0.02 in    
Historical Graphs
 
 
Tabular Data for July 4, 2016
Time Temperature Dew Point Pressure Wind Wind Speed Wind Gust Humidity Rainfall Rate (Hourly)
00:00 69.5 °F 60.8 °F 30.03 in SW 1.5 mph 2.0 mph 74 % 0.00 in
00:05 69.5 °F 61.2 °F 30.03 in SW 0.9 mph 3.5 mph 75 % 0.00 in
00:11 69.4 °F 61.1 °F 30.03 in SW 2.8 mph 4.6 mph 75 % 0.00 in
00:16 69.3 °F 61.0 °F 30.03 in SW 2.2 mph 3.5 mph 75 % 0.00 in
00:21 69.3 °F 61.0 °F 30.03 in South 0.7 mph 3.5 mph 75 % 0.00 in
00:26 69.2 °F 60.9 °F 30.03 in SW 3.2 mph 5.8 mph 75 % 0.00 in
00:36 69.1 °F 60.8 °F 30.03 in WSW 1.9 mph 3.5 mph 75 % 0.00 in
00:41 69.1 °F 60.8 °F 30.03 in Calm   2.3 mph 75 % 0.00 in
00:46 69.0 °F 60.7 °F 30.04 in SW 0.2 mph 1.2 mph 75 % 0.00 in
00:51 69.0 °F 60.7 °F 30.03 in South 1.1 mph 3.5 mph 75 % 0.00 in
00:56 68.9 °F 60.6 °F 30.03 in South 0.3 mph 2.3 mph 75 % 0.00 in
01:02 68.9 °F 60.6 °F 30.03 in SSW 0.5 mph 2.3 mph 75 % 0.00 in
01:07 68.8 °F 60.6 °F 30.03 in SW 1.0 mph 2.3 mph 75 % 0.00 in
01:12 68.8 °F 60.6 °F 30.03 in West 1.5 mph 3.5 mph 75 % 0.00 in
01:17 68.8 °F 60.6 °F 30.04 in West 1.1 mph 2.3 mph 75 % 0.00 in
01:22 68.7 °F 60.5 °F 30.03 in SW 0.5 mph 2.3 mph 75 % 0.00 in
01:27 68.7 °F 60.5 °F 30.03 in Calm   2.3 mph 75 % 0.00 in
01:32 68.7 °F 60.5 °F 30.03 in SW 0.1 mph   75 % 0.00 in
01:37 68.6 °F 60.7 °F 30.03 in WSW 0.6 mph 1.2 mph 76 % 0.00 in
01:42 68.6 °F 60.4 °F 30.03 in WSW 0.1 mph 1.2 mph 75 % 0.00 in
01:47 68.5 °F 60.6 °F 30.03 in SW 1.3 mph 2.3 mph 76 % 0.00 in
01:53 68.4 °F 60.5 °F 30.03 in SW 1.9 mph 3.5 mph 76 % 0.00 in
01:58 68.3 °F 60.4 °F 30.03 in SW 0.2 mph 2.3 mph 76 % 0.00 in
02:03 68.3 °F 60.4 °F 30.03 in Calm   3.5 mph 76 % 0.00 in
02:13 68.0 °F 60.5 °F 30.02 in Calm   1.0 mph 77 % 0.00 in
02:18 68.0 °F 60.5 °F 30.02 in WSW 0.3 mph 2.3 mph 77 % 0.00 in
02:23 67.9 °F 60.4 °F 30.02 in WSW 0.2 mph 1.2 mph 77 % 0.00 in
02:28 67.7 °F 60.2 °F 30.02 in WSW 0.9 mph 2.3 mph 77 % 0.00 in
02:33 67.6 °F 60.5 °F 30.02 in WSW 0.2 mph 1.2 mph 78 % 0.00 in
02:39 67.5 °F 60.4 °F 30.02 in SSW 0.3 mph 2.3 mph 78 % 0.00 in
02:44 67.4 °F 60.3 °F 30.02 in WSW 1.4 mph 3.5 mph 78 % 0.00 in
02:49 67.3 °F 60.2 °F 30.02 in WSW 1.0 mph 3.5 mph 78 % 0.00 in
02:54 67.2 °F 60.5 °F 30.02 in SW 2.4 mph 5.8 mph 79 % 0.00 in
02:59 67.1 °F 60.4 °F 30.02 in WSW 2.0 mph 5.8 mph 79 % 0.00 in
03:04 67.0 °F 60.3 °F 30.02 in SW 1.7 mph 3.5 mph 79 % 0.00 in
03:09 67.0 °F 60.3 °F 30.02 in WSW 2.0 mph 3.0 mph 79 % 0.00 in
03:14 66.9 °F 60.5 °F 30.02 in WSW 1.7 mph 3.5 mph 80 % 0.00 in
03:19 66.9 °F 60.5 °F 30.02 in WSW 0.7 mph 2.3 mph 80 % 0.00 in
03:24 66.8 °F 60.4 °F 30.02 in SW 0.9 mph 3.5 mph 80 % 0.00 in
03:30 66.8 °F 60.4 °F 30.02 in SW 1.1 mph 3.5 mph 80 % 0.00 in
03:35 66.7 °F 60.3 °F 30.02 in SSW 1.9 mph 3.5 mph 80 % 0.00 in
03:40 66.7 °F 60.3 °F 30.01 in SW 1.4 mph 3.5 mph 80 % 0.00 in
03:45 66.6 °F 60.2 °F 30.01 in SSW 1.8 mph 3.5 mph 80 % 0.00 in
03:50 66.5 °F 60.5 °F 30.02 in SW 1.5 mph 3.5 mph 81 % 0.00 in
03:55 66.4 °F 60.4 °F 30.02 in SW 1.6 mph 3.5 mph 81 % 0.00 in
04:00 66.3 °F 60.3 °F 30.02 in SW 2.1 mph 3.5 mph 81 % 0.00 in
04:05 66.3 °F 60.6 °F 30.02 in SW 1.7 mph 2.3 mph 82 % 0.00 in
04:10 66.1 °F 60.4 °F 30.02 in SW 3.6 mph 4.6 mph 82 % 0.00 in
04:15 66.1 °F 60.4 °F 30.02 in SW 2.4 mph 3.5 mph 82 % 0.00 in
04:21 66.0 °F 60.7 °F 30.02 in WSW 1.7 mph 3.5 mph 83 % 0.00 in
04:26 65.9 °F 60.6 °F 30.02 in SW 2.1 mph 3.5 mph 83 % 0.00 in
04:36 65.8 °F 60.5 °F 30.02 in WSW 1.2 mph 2.3 mph 83 % 0.00 in
04:46 65.6 °F 60.3 °F 30.02 in SW 0.9 mph 2.0 mph 83 % 0.00 in
04:51 65.5 °F 60.5 °F 30.03 in SW 1.9 mph 3.5 mph 84 % 0.00 in
04:56 65.4 °F 60.4 °F 30.02 in SW 1.7 mph 3.5 mph 84 % 0.00 in
05:01 65.4 °F 60.4 °F 30.03 in SW 0.6 mph 2.3 mph 84 % 0.00 in
05:06 65.3 °F 60.3 °F 30.03 in SW 0.7 mph 2.3 mph 84 % 0.00 in
05:12 65.2 °F 60.2 °F 30.03 in SW 1.0 mph 1.2 mph 84 % 0.00 in
05:17 65.0 °F 60.0 °F 30.03 in SW 0.8 mph 2.3 mph 84 % 0.00 in
05:22 64.9 °F 60.3 °F 30.03 in SW 1.4 mph 3.5 mph 85 % 0.00 in
05:27 64.8 °F 60.2 °F 30.03 in SW 0.9 mph 3.5 mph 85 % 0.00 in
05:32 64.7 °F 60.1 °F 30.03 in Calm   1.2 mph 85 % 0.00 in
05:37 64.6 °F 60.0 °F 30.03 in SW 0.5 mph 1.2 mph 85 % 0.00 in
05:42 64.5 °F 59.9 °F 30.03 in SW 0.9 mph 3.5 mph 85 % 0.00 in
05:47 64.5 °F 59.9 °F 30.03 in SW 0.6 mph 2.3 mph 85 % 0.00 in
05:52 64.4 °F 59.8 °F 30.03 in SW 0.9 mph 2.3 mph 85 % 0.00 in
05:57 64.3 °F 60.0 °F 30.03 in Calm   1.2 mph 86 % 0.00 in
06:03 64.2 °F 59.9 °F 30.03 in SW 0.2 mph 2.3 mph 86 % 0.00 in
06:08 64.2 °F 59.9 °F 30.03 in SW 0.1 mph 2.3 mph 86 % 0.00 in
06:13 64.2 °F 60.2 °F 30.03 in SW 0.5 mph 2.3 mph 87 % 0.00 in
06:18 64.2 °F 60.2 °F 30.04 in SW 0.2 mph 1.2 mph 87 % 0.00 in
06:23 64.2 °F 60.2 °F 30.04 in SW 0.6 mph 2.3 mph 87 % 0.00 in
06:28 64.3 °F 60.7 °F 30.04 in SW 0.9 mph 2.3 mph 88 % 0.00 in
06:33 64.5 °F 60.9 °F 30.04 in SW 1.8 mph 3.0 mph 88 % 0.00 in
06:38 64.7 °F 61.1 °F 30.04 in WSW 2.1 mph 3.5 mph 88 % 0.00 in
06:43 65.0 °F 61.0 °F 30.04 in WSW 1.7 mph 4.0 mph 87 % 0.00 in
06:48 65.3 °F 61.3 °F 30.04 in SW 2.7 mph 3.5 mph 87 % 0.00 in
06:54 65.7 °F 61.4 °F 30.04 in SSW 2.8 mph 4.0 mph 86 % 0.00 in
06:59 66.1 °F 61.8 °F 30.04 in SW 2.3 mph 4.6 mph 86 % 0.00 in
07:04 66.6 °F 62.3 °F 30.05 in SSW 2.9 mph 4.0 mph 86 % 0.00 in
07:09 67.2 °F 62.5 °F 30.05 in SW 2.8 mph 4.6 mph 85 % 0.00 in
07:14 67.8 °F 62.8 °F 30.05 in SSW 2.7 mph 3.5 mph 84 % 0.00 in
07:19 68.3 °F 62.6 °F 30.05 in SSW 1.2 mph 3.0 mph 82 % 0.00 in
07:24 69.0 °F 62.9 °F 30.05 in WSW 1.8 mph 3.5 mph 81 % 0.00 in
07:29 69.7 °F 62.9 °F 30.05 in SW 2.9 mph 4.6 mph 79 % 0.00 in
07:34 70.3 °F 62.7 °F 30.05 in SW 2.6 mph 4.0 mph 77 % 0.00 in
07:39 70.7 °F 62.4 °F 30.05 in SW 2.9 mph 5.8 mph 75 % 0.00 in
07:45 71.0 °F 62.3 °F 30.05 in SW 2.0 mph 3.5 mph 74 % 0.00 in
07:50 71.2 °F 62.5 °F 30.05 in SW 1.9 mph 3.5 mph 74 % 0.00 in
07:55 71.3 °F 62.2 °F 30.05 in SW 1.7 mph 3.5 mph 73 % 0.00 in
08:00 71.3 °F 61.8 °F 30.05 in SW 2.3 mph 4.6 mph 72 % 0.00 in
08:05 71.4 °F 62.3 °F 30.05 in West 4.4 mph 6.9 mph 73 % 0.00 in
08:10 71.5 °F 62.0 °F 30.05 in SW 3.8 mph 6.0 mph 72 % 0.00 in
08:15 71.6 °F 61.7 °F 30.06 in SW 1.9 mph 3.5 mph 71 % 0.00 in
08:20 71.7 °F 62.2 °F 30.06 in SSW 4.3 mph 5.8 mph 72 % 0.00 in
08:25 71.8 °F 61.9 °F 30.06 in SW 3.1 mph 8.1 mph 71 % 0.00 in
08:30 71.9 °F 61.6 °F 30.05 in WSW 3.2 mph 5.0 mph 70 % 0.00 in
08:36 72.1 °F 61.0 °F 30.05 in West 3.4 mph 5.8 mph 68 % 0.00 in
08:41 72.2 °F 61.0 °F 30.05 in SW 2.1 mph 4.6 mph 68 % 0.00 in
08:46 72.5 °F 61.3 °F 30.05 in SW 2.5 mph 4.6 mph 68 % 0.00 in
08:51 72.7 °F 61.1 °F 30.05 in WSW 2.6 mph 5.0 mph 67 % 0.00 in
08:56 72.9 °F 61.3 °F 30.05 in NW 1.8 mph 3.5 mph 67 % 0.00 in
09:01 73.1 °F 60.6 °F 30.05 in SW 4.2 mph 4.6 mph 65 % 0.00 in
09:06 73.2 °F 61.2 °F 30.05 in WNW 1.6 mph 4.6 mph 66 % 0.00 in
09:11 73.4 °F 60.9 °F 30.05 in NW 2.8 mph 4.6 mph 65 % 0.00 in
09:16 73.5 °F 60.6 °F 30.05 in WNW 3.7 mph 7.0 mph 64 % 0.00 in
09:21 73.6 °F 61.1 °F 30.05 in SW 2.6 mph 5.8 mph 65 % 0.00 in
09:27 73.7 °F 60.3 °F 30.05 in SW 3.9 mph 4.6 mph 63 % 0.00 in
09:32 73.9 °F 60.1 °F 30.05 in SSW 2.6 mph 4.0 mph 62 % 0.00 in
09:37 74.0 °F 61.0 °F 30.05 in West 0.4 mph 2.3 mph 64 % 0.00 in
09:42 74.3 °F 60.9 °F 30.05 in NW 2.2 mph 3.5 mph 63 % 0.00 in
09:47 74.7 °F 61.7 °F 30.05 in WNW 0.2 mph 1.2 mph 64 % 0.00 in
09:52 75.2 °F 62.2 °F 30.05 in WNW 3.6 mph 5.0 mph 64 % 0.00 in
09:57 76.0 °F 62.5 °F 30.05 in WNW 3.5 mph 6.9 mph 63 % 0.00 in
10:02 77.0 °F 63.4 °F 30.05 in SW 2.7 mph 3.5 mph 63 % 0.00 in
10:07 77.9 °F 62.4 °F 30.05 in WNW 2.9 mph 4.0 mph 59 % 0.00 in
10:12 78.8 °F 64.7 °F 30.05 in West 0.8 mph 3.5 mph 62 % 0.00 in
10:18 79.8 °F 67.0 °F 30.05 in WSW 0.9 mph 3.5 mph 65 % 0.00 in
10:23 80.7 °F 65.5 °F 30.05 in North 2.3 mph 3.0 mph 60 % 0.00 in
10:28 81.4 °F 66.7 °F 30.05 in NE 3.5 mph 6.0 mph 61 % 0.00 in
10:33 81.6 °F 65.4 °F 30.05 in NNW 1.3 mph 3.5 mph 58 % 0.00 in
10:38 81.9 °F 66.2 °F 30.05 in NNW 3.8 mph 5.8 mph 59 % 0.00 in
10:43 82.3 °F 67.0 °F 30.05 in North 2.1 mph 3.5 mph 60 % 0.00 in
10:48 82.6 °F 66.8 °F 30.05 in North 3.3 mph 5.8 mph 59 % 0.00 in
10:53 82.8 °F 67.5 °F 30.05 in NNE 2.4 mph 3.5 mph 60 % 0.00 in
10:58 83.1 °F 65.8 °F 30.05 in NNE 2.2 mph 4.6 mph 56 % 0.00 in
11:03 83.3 °F 68.9 °F 30.05 in NW 1.6 mph 4.6 mph 62 % 0.00 in
11:09 83.6 °F 69.2 °F 30.04 in West 1.7 mph 3.5 mph 62 % 0.00 in
11:14 84.0 °F 67.6 °F 30.04 in WNW 1.4 mph 5.0 mph 58 % 0.00 in
11:19 84.5 °F 64.9 °F 30.04 in WNW 2.9 mph 4.6 mph 52 % 0.00 in
11:24 84.9 °F 68.0 °F 30.04 in NW 2.3 mph 4.6 mph 57 % 0.00 in
11:29 85.4 °F 66.3 °F 30.04 in NNE 2.5 mph 3.5 mph 53 % 0.00 in
11:39 85.7 °F 65.5 °F 30.04 in NNW 2.4 mph 3.5 mph 51 % 0.00 in
11:44 86.0 °F 64.6 °F 30.04 in WNW 2.5 mph 4.0 mph 49 % 0.00 in
11:49 86.1 °F 64.1 °F 30.04 in NW 2.7 mph 3.5 mph 48 % 0.00 in
11:54 86.1 °F 66.4 °F 30.03 in NNE 3.4 mph 3.5 mph 52 % 0.00 in
12:00 86.5 °F 68.4 °F 30.03 in NNE 1.7 mph 4.6 mph 55 % 0.00 in
12:05 86.9 °F 66.6 °F 30.04 in North 1.8 mph 3.5 mph 51 % 0.00 in
12:10 87.1 °F 66.8 °F 30.03 in NNE 1.5 mph 5.8 mph 51 % 0.00 in
12:15 87.0 °F 64.9 °F 30.03 in NNW 2.3 mph 5.8 mph 48 % 0.00 in
12:25 86.9 °F 64.2 °F 30.03 in NNW 2.0 mph 3.5 mph 47 % 0.00 in
12:30 86.9 °F 64.8 °F 30.03 in North 3.5 mph 4.6 mph 48 % 0.00 in
12:35 86.8 °F 64.8 °F 30.03 in NW 1.3 mph 3.5 mph 48 % 0.00 in
12:40 87.0 °F 66.1 °F 30.03 in North 2.7 mph 4.0 mph 50 % 0.00 in
12:51 87.1 °F 65.0 °F 30.02 in NE 0.7 mph 4.6 mph 48 % 0.00 in
12:56 87.5 °F 64.8 °F 30.02 in NE 1.2 mph 3.5 mph 47 % 0.00 in
13:01 87.7 °F 63.1 °F 30.02 in NNW 2.6 mph 5.8 mph 44 % 0.00 in
13:06 88.1 °F 62.8 °F 30.02 in North 3.7 mph 5.8 mph 43 % 0.00 in
13:11 88.3 °F 64.3 °F 30.02 in NW 1.7 mph 3.5 mph 45 % 0.00 in
13:16 88.3 °F 60.9 °F 30.02 in WNW 3.8 mph 5.8 mph 40 % 0.00 in
13:21 88.5 °F 60.4 °F 30.01 in West 0.5 mph 3.5 mph 39 % 0.00 in
13:26 88.7 °F 64.6 °F 30.01 in North 2.7 mph 3.5 mph 45 % 0.00 in
13:31 88.6 °F 65.2 °F 30.01 in North 2.7 mph 3.5 mph 46 % 0.00 in
13:36 88.7 °F 65.3 °F 30.01 in NNE 3.2 mph 4.0 mph 46 % 0.00 in
13:47 88.8 °F 59.9 °F 30.01 in NE 4.2 mph 6.0 mph 38 % 0.00 in
13:52 88.7 °F 61.3 °F 30.00 in NE 0.7 mph 3.5 mph 40 % 0.00 in
13:57 88.3 °F 60.2 °F 30.01 in NNW 0.1 mph 1.2 mph 39 % 0.00 in
14:02 87.7 °F 60.4 °F 30.00 in North 0.8 mph 2.3 mph 40 % 0.00 in
14:07 86.9 °F 59.0 °F 30.01 in Calm     39 % 0.00 in
14:12 86.8 °F 61.0 °F 30.00 in North 1.0 mph 2.3 mph 42 % 0.00 in
14:17 87.0 °F 63.7 °F 30.00 in ENE 0.8 mph 3.5 mph 46 % 0.00 in
14:22 87.3 °F 60.7 °F 30.00 in SE 1.0 mph 1.2 mph 41 % 0.00 in
14:27 87.6 °F 60.3 °F 29.99 in ESE 1.7 mph 2.3 mph 40 % 0.00 in
14:33 87.6 °F 58.9 °F 29.99 in WSW 3.9 mph 4.0 mph 38 % 0.00 in
14:38 87.5 °F 60.9 °F 29.99 in SSW 1.1 mph 8.1 mph 41 % 0.00 in
14:43 87.3 °F 60.7 °F 29.99 in SSE 3.4 mph 5.8 mph 41 % 0.00 in
14:48 86.7 °F 61.5 °F 29.99 in SSW 2.7 mph 4.0 mph 43 % 0.00 in
14:53 86.5 °F 58.6 °F 29.99 in SSW 3.4 mph 6.9 mph 39 % 0.00 in
14:58 85.7 °F 58.6 °F 29.99 in SSW 2.1 mph 8.1 mph 40 % 0.00 in
15:03 85.5 °F 60.4 °F 29.99 in SSW 3.7 mph 6.9 mph 43 % 0.00 in
15:08 85.3 °F 60.3 °F 29.99 in SSW 3.0 mph 5.8 mph 43 % 0.00 in
15:13 85.4 °F 60.4 °F 29.99 in SSW 0.4 mph 3.5 mph 43 % 0.00 in
15:19 85.7 °F 60.0 °F 29.98 in SSE 1.5 mph 3.5 mph 42 % 0.00 in
15:24 85.3 °F 57.5 °F 29.98 in SSE 1.9 mph 4.6 mph 39 % 0.00 in
15:29 85.2 °F 57.4 °F 29.98 in SSW 1.1 mph 3.5 mph 39 % 0.00 in
15:34 85.2 °F 58.8 °F 29.98 in SE 1.3 mph 6.9 mph 41 % 0.00 in
15:39 84.8 °F 58.5 °F 29.98 in SE 1.9 mph 4.6 mph 41 % 0.00 in
15:44 84.1 °F 57.9 °F 29.98 in SSE 0.7 mph 4.6 mph 41 % 0.00 in
15:49 83.8 °F 58.3 °F 29.98 in SSE 0.8 mph 3.5 mph 42 % 0.00 in
15:54 83.6 °F 59.4 °F 29.98 in WSW 3.3 mph 6.9 mph 44 % 0.00 in
15:59 83.8 °F 59.6 °F 29.98 in SE 0.8 mph 3.5 mph 44 % 0.00 in
16:04 83.6 °F 58.7 °F 29.97 in SSE 2.2 mph 4.6 mph 43 % 0.00 in
16:10 83.3 °F 58.5 °F 29.97 in SE 1.0 mph 2.3 mph 43 % 0.00 in
16:15 83.2 °F 60.9 °F 29.97 in South 2.4 mph 3.5 mph 47 % 0.00 in
16:20 83.2 °F 59.6 °F 29.97 in SE 0.9 mph 5.0 mph 45 % 0.00 in
16:25 82.2 °F 57.5 °F 29.97 in ESE 7.5 mph 15.0 mph 43 % 0.00 in
16:30 81.6 °F 56.9 °F 29.97 in SSE 4.9 mph 10.4 mph 43 % 0.00 in
16:35 81.1 °F 57.7 °F 29.98 in South 1.4 mph 9.2 mph 45 % 0.00 in
16:40 80.9 °F 58.2 °F 29.97 in SSE 4.3 mph 9.0 mph 46 % 0.00 in
16:45 80.5 °F 57.8 °F 29.97 in SE 2.2 mph 3.5 mph 46 % 0.00 in
16:50 80.3 °F 59.4 °F 29.97 in SSW 3.9 mph 6.9 mph 49 % 0.00 in
16:55 80.3 °F 60.0 °F 29.97 in SE 1.2 mph 5.8 mph 50 % 0.00 in
17:00 80.3 °F 60.5 °F 29.97 in SSW 2.5 mph 6.9 mph 51 % 0.00 in
17:05 80.4 °F 59.5 °F 29.96 in SSW 3.1 mph 4.6 mph 49 % 0.00 in
17:11 80.3 °F 58.8 °F 29.96 in South 2.1 mph 5.8 mph 48 % 0.00 in
17:16 80.2 °F 59.9 °F 29.96 in SSW 1.2 mph 3.5 mph 50 % 0.00 in
17:21 79.9 °F 59.0 °F 29.96 in South 2.7 mph 5.8 mph 49 % 0.00 in
17:26 79.7 °F 58.8 °F 29.96 in South 3.8 mph 9.2 mph 49 % 0.00 in
17:31 79.3 °F 59.0 °F 29.96 in SSE 2.4 mph 11.0 mph 50 % 0.00 in
17:36 79.1 °F 59.4 °F 29.95 in SSW 1.4 mph 2.3 mph 51 % 0.00 in
17:41 79.0 °F 59.3 °F 29.95 in SSE 3.2 mph 8.1 mph 51 % 0.00 in
17:46 78.6 °F 59.5 °F 29.95 in SE 4.7 mph 6.9 mph 52 % 0.00 in
17:51 78.4 °F 60.4 °F 29.95 in SSE 3.0 mph 6.0 mph 54 % 0.00 in
17:57 78.2 °F 60.2 °F 29.95 in SSW 3.7 mph 5.8 mph 54 % 0.00 in
18:02 78.1 °F 60.1 °F 29.95 in SSW 1.7 mph 3.5 mph 54 % 0.00 in
18:07 77.9 °F 59.9 °F 29.95 in SSE 1.6 mph 6.9 mph 54 % 0.00 in
18:13 77.5 °F 61.1 °F 29.95 in SSE 3.4 mph 4.6 mph 57 % 0.00 in
18:18 77.2 °F 62.2 °F 29.94 in SW 3.3 mph 4.6 mph 60 % 0.00 in
18:28 76.6 °F 64.0 °F 29.94 in South 0.7 mph 3.5 mph 65 % 0.00 in
18:33 76.2 °F 64.4 °F 29.94 in SE 3.7 mph 6.9 mph 67 % 0.00 in
18:38 75.8 °F 64.9 °F 29.94 in SSE 2.2 mph 5.8 mph 69 % 0.00 in
18:43 75.7 °F 65.2 °F 29.94 in South 3.2 mph 5.0 mph 70 % 0.00 in
18:48 75.6 °F 65.5 °F 29.94 in South 0.5 mph 3.5 mph 71 % 0.00 in
18:53 75.6 °F 66.3 °F 29.94 in SSE 3.0 mph 8.1 mph 73 % 0.00 in
18:58 75.5 °F 66.6 °F 29.94 in South 2.2 mph 5.8 mph 74 % 0.00 in
19:04 75.3 °F 66.8 °F 29.94 in SSE 0.8 mph 3.5 mph 75 % 0.00 in
19:09 75.1 °F 66.6 °F 29.94 in SSW 1.7 mph 4.6 mph 75 % 0.00 in
19:14 74.9 °F 66.8 °F 29.94 in SSE 0.5 mph 2.3 mph 76 % 0.00 in
19:19 74.7 °F 66.6 °F 29.94 in SE 0.6 mph 2.3 mph 76 % 0.00 in
19:24 74.5 °F 66.8 °F 29.94 in SSE 1.6 mph 4.6 mph 77 % 0.00 in
19:29 74.4 °F 66.7 °F 29.94 in SSE 1.9 mph 5.8 mph 77 % 0.00 in
19:34 74.3 °F 66.6 °F 29.94 in South 2.1 mph 4.6 mph 77 % 0.00 in
19:39 74.1 °F 66.4 °F 29.94 in SE 1.5 mph 4.6 mph 77 % 0.00 in
19:44 73.9 °F 66.2 °F 29.95 in SSW 1.2 mph 3.5 mph 77 % 0.00 in
19:49 73.8 °F 66.1 °F 29.94 in South 3.0 mph 4.0 mph 77 % 0.00 in
19:55 73.7 °F 65.7 °F 29.94 in South 1.1 mph 3.5 mph 76 % 0.00 in
20:00 73.6 °F 65.9 °F 29.94 in SW 3.2 mph 5.0 mph 77 % 0.00 in
20:05 73.5 °F 65.8 °F 29.94 in SE 1.3 mph 6.9 mph 77 % 0.00 in
20:10 73.5 °F 65.5 °F 29.94 in South 4.7 mph 6.9 mph 76 % 0.00 in
20:15 73.4 °F 65.4 °F 29.94 in South 2.6 mph 4.6 mph 76 % 0.00 in
20:20 73.4 °F 65.4 °F 29.94 in SSW 2.9 mph 4.0 mph 76 % 0.00 in
20:25 73.3 °F 65.3 °F 29.94 in SE 2.0 mph 4.0 mph 76 % 0.00 in
20:30 73.3 °F 65.3 °F 29.94 in SSW 3.9 mph 8.1 mph 76 % 0.00 in
20:35 73.2 °F 65.6 °F 29.94 in SSE 1.3 mph 4.6 mph 77 % 0.00 in
20:40 73.2 °F 65.6 °F 29.94 in SSE 2.4 mph 4.6 mph 77 % 0.00 in
20:45 73.1 °F 65.5 °F 29.93 in SE 1.2 mph 3.5 mph 77 % 0.00 in
20:51 73.1 °F 65.5 °F 29.93 in South 1.8 mph 2.3 mph 77 % 0.00 in
20:56 73.0 °F 65.4 °F 29.93 in SW 1.9 mph 3.5 mph 77 % 0.00 in
20:59 73.0 °F 65.4 °F 29.93 in SSE 3.1 mph 4.6 mph 77 % 0.00 in
21:04 73.0 °F 65.4 °F 29.93 in SE 1.4 mph 3.5 mph 77 % 0.00 in
21:09 73.0 °F 65.0 °F 29.93 in SSW 3.6 mph 9.2 mph 76 % 0.00 in
21:19 72.9 °F 65.3 °F 29.93 in SW 2.9 mph 6.9 mph 77 % 0.00 in
21:25 72.9 °F 65.3 °F 29.94 in SSW 4.7 mph 13.8 mph 77 % 0.00 in
21:30 72.9 °F 65.3 °F 29.94 in SSW 5.0 mph 10.4 mph 77 % 0.00 in
21:35 72.8 °F 65.5 °F 29.94 in SW 3.9 mph 7.0 mph 78 % 0.00 in
21:40 72.8 °F 65.9 °F 29.94 in SW 0.6 mph 2.3 mph 79 % 0.00 in
21:47 72.7 °F 66.2 °F 29.94 in SSW 6.5 mph 8.1 mph 80 % 0.00 in
21:52 72.6 °F 66.1 °F 29.94 in SSW 3.0 mph 8.1 mph 80 % 0.00 in
21:57 72.5 °F 67.0 °F 29.94 in SSW 3.8 mph 6.9 mph 83 % 0.00 in
22:03 72.3 °F 67.2 °F 29.94 in SSW 1.3 mph 3.5 mph 84 % 0.01 in
22:08 72.1 °F 67.0 °F 29.93 in SSW 0.4 mph 1.2 mph 84 % 0.01 in
22:13 71.8 °F 66.7 °F 29.93 in SSW 0.1 mph 1.2 mph 84 % 0.01 in
22:18 71.6 °F 66.8 °F 29.94 in SSW 0.5 mph 2.3 mph 85 % 0.01 in
22:23 71.4 °F 66.7 °F 29.93 in SSW 0.4 mph 1.2 mph 85 % 0.01 in
22:28 71.1 °F 66.7 °F 29.93 in SSW 0.3 mph 1.2 mph 86 % 0.01 in
22:33 70.8 °F 66.7 °F 29.93 in South 0.2 mph 1.0 mph 87 % 0.01 in
22:38 70.6 °F 66.9 °F 29.93 in Calm     88 % 0.02 in
22:43 70.4 °F 67.0 °F 29.93 in Calm     89 % 0.02 in
22:48 70.3 °F 66.9 °F 29.93 in South 0.3 mph 1.2 mph 89 % 0.02 in
22:54 70.2 °F 66.8 °F 29.92 in SSE 0.6 mph 2.0 mph 89 % 0.02 in
22:59 70.0 °F 66.9 °F 29.92 in South 0.6 mph 1.2 mph 90 % 0.02 in
23:04 69.9 °F 66.8 °F 29.92 in Calm     90 % 0.01 in
23:09 69.9 °F 66.8 °F 29.92 in SE 0.6 mph 2.3 mph 90 % 0.01 in
23:14 69.8 °F 66.7 °F 29.91 in Calm   1.2 mph 90 % 0.01 in
23:20 69.9 °F 67.2 °F 29.91 in Calm   1.2 mph 91 % 0.01 in
23:26 69.9 °F 67.1 °F 29.91 in Calm     91 % 0.00 in
23:31 69.9 °F 67.1 °F 29.91 in Calm   1.0 mph 91 % 0.00 in
23:36 69.8 °F 67.1 °F 29.91 in Calm     91 % 0.01 in
23:41 69.8 °F 67.1 °F 29.91 in Calm   2.0 mph 91 % 0.00 in
23:46 69.8 °F 67.1 °F 29.91 in Calm   3.0 mph 91 % 0.00 in
23:51 69.7 °F 67.0 °F 29.90 in SSE 0.8 mph 1.2 mph 91 % 0.00 in
23:56 69.7 °F 67.3 °F 29.90 in Calm   6.0 mph 92 % 0.00 in
Crab Meadow Weather
Compliments of Weather Underground - 3 mb

Script developed by  Jim McMurry - jmcmurry@mwt.net Adapted for the template by  Wim van der Kuil - Leuven-Template.eu

Clouds: Mostly Cloudy or Considerable Cloudiness indicate about 75 percent cloud coverage.